Airfield :







YOU CAN JOIN US ON...

 
LOGIN :

Register | Disclaimer

   EN    FR    IT 

 









Legend :    VFR   Marginal VFR   IFR   Intensive IFR   Very Intensive IFR
Visi :
Ceiling :
>= 8 km
>= 3000ft
5 to 8 km
1000 to 3000 ft
1500m to 5 km
500 to 1000 ft
800 to 1500m
200 to 500 ft
< 800m
< 200 ft
Symbols :   Thunderstorms  Fog  Heavy snow  Heavy precipitations  Wind > 20 kt






- Airport Elevation : 1270 ft
- IATA code : YMT


CYMT - Chapais

CURRENT METAR :
  • 072021Z AUTO VRB06KT 9SM TSRA SCT042 OVC095 18/16 A3007 RMK LTNG DIST E SE SLP188 DENSITY ALT 1700FT

EXPIRED METARs :
  • 072000Z AUTO 28010G16KT 260V340 4SM +RA VCTS BR BKN045 BKN065 BKN081 OVC099 18/17 A3008 RMK LTNG DIST SW NW PRESRR SLP191 DENSITY ALT 1700FT
  • 071956Z AUTO 30009G16KT 290V350 5SM +RA VCTS BR SCT040 BKN050 BKN070 OVC094 19/17 A3007 RMK LTNG DIST NW PRESRR SLP188 DENSITY ALT 1800FT
  • 071937Z AUTO VRB08G15KT 6SM -RA FEW029 BKN050 BKN065 OVC098 21/16 A3005 RMK SLP179 DENSITY ALT 2100FT
  • 071928Z AUTO 26007G15KT 200V360 5SM +RA FEW027 BKN050 BKN075 OVC100 22/16 A3005 RMK SLP180 DENSITY ALT 2100FT
  • 071900Z AUTO 21011G19KT 9SM FEW055 BKN120 BKN140 25/15 A3005 RMK LTNG DIST NE SLP178 DENSITY ALT 2600FT
  • 071800Z AUTO 23011G18KT 190V260 9SM CLR 25/16 A3006 RMK LTNG DIST N SLP183 DENSITY ALT 2400FT

TAF AMD TAF CYMT
Valid from the 07 at 20:00 until the 08 at 00:00 UTC


072005Z 0720/0724 28010G20KT P6SM -SHRA BKN050
TEMPO 0720/0722 VRB15G25KT 1SM +TSRA BR BKN015 OVC050CB
FM072200 28010G20KT P6SM BKN080
TEMPO 0722/0724 5SM -SHRA BR BKN030
PROB30 0722/0724 VRB15G25KT 1SM +TSRA BR BKN015 OVC050CB RMK FCST BASED ON AUTO OBS. NXT FCST WILL BE ISSUED AT 081145Z
CZUL FIR / North America



MET'MAP, your aeronautical weather chart ! - Copyright ORBIFLY December 2007 - Disclaimer

ORBIFLY MET'MAP TEAM :

Programming & Development : Alexandra Zaïnal
Concept & original design : Baudouin d'Aumeries
Assistance for programming : Marc-Olivier Méhu
Technical & hardware support : Manuel Goepfert

Contact : metmap@orbifly.com




SOURCES & CREDITS :

   NOAA